Alba, Texas
Current Conditions -  °F | °C
As of 4:55 PM on Monday 24 Nov 2014 (Local Time) from KJDD Reporting Station
Clear Clear  
Wind Chill: 57°   Ceiling: Unl
Heat Index: 57°   Visibility: 10mi
Dew Point: 19°   Wind: 6mph
Humidity: 23%   Direction: 260°W
Pressure: 30.05"   Gusts: NA
Location:  32.79°N, 95.63°W
Report Text: KJDD 242255Z AUTO 26005KT 10SM CLR 14/M07 A3005 RMK AO2
Loading
Personal Weather Stations






























Interactive Weather Map New forecast layout! Learn more

10-Day Weather Forecast

Advertisements
Track Severe Weather on mobile